Time;durP1;ratioP1;P1;durP2;ratioP2;P2;SDS_P1;SDS_P2;PMS_P1;PMS_P2;Temp;Humidity;BMP_temperature;BMP_pressure;BME280_temperature;BME280_humidity;BME280_pressure;Samples;Min_cycle;Max_cycle;Signal;HPM_P1;HPM_P2
2023/06/25 00:01:31;;;;;;;5.60;3.00;;;;;;;;;;5046044;28;20048;-83
2023/06/25 00:03:56;;;;;;;5.68;3.25;;;;;;;;;;5054450;28;20033;-84
2023/06/25 00:06:22;;;;;;;4.93;3.00;;;;;;;;;;5041465;28;20452;-83
2023/06/25 00:08:48;;;;;;;6.68;2.88;;;;;;;;;;5035753;28;20037;-83
2023/06/25 00:11:14;;;;;;;4.35;2.80;;;;;;;;;;5042175;28;20076;-83
2023/06/25 00:13:40;;;;;;;4.35;3.03;;;;;;;;;;5045055;28;20033;-83
2023/06/25 00:16:06;;;;;;;7.22;3.00;;;;;;;;;;5047235;28;20068;-83
2023/06/25 00:18:33;;;;;;;3.85;2.97;;;;;;;;;;5051748;28;20037;-83
2023/06/25 00:20:58;;;;;;;4.07;2.95;;;;;;;;;;5053919;28;20040;-84
2023/06/25 00:23:24;;;;;;;3.65;2.70;;;;;;;;;;5032017;28;20517;-83
2023/06/25 00:25:50;;;;;;;4.18;2.92;;;;;;;;;;5036644;28;20090;-83
2023/06/25 00:28:16;;;;;;;4.53;2.90;;;;;;;;;;5042733;28;20041;-83
2023/06/25 00:30:41;;;;;;;4.55;2.72;;;;;;;;;;5046952;28;20041;-83
2023/06/25 00:33:07;;;;;;;5.85;3.15;;;;;;;;;;5048651;28;20033;-83
2023/06/25 00:36:06;;;;;;;4.50;2.63;;;;;;;;;;5050117;28;20132;-83
2023/06/25 00:38:37;;;;;;;6.03;2.85;;;;;;;;;;5050169;28;20055;-83
2023/06/25 00:41:02;;;;;;;5.15;3.00;;;;;;;;;;5039765;28;20045;-83
2023/06/25 00:43:28;;;;;;;5.40;3.10;;;;;;;;;;5045307;28;20417;-83
2023/06/25 00:45:53;;;;;;;4.93;3.00;;;;;;;;;;5046955;28;20059;-83
2023/06/25 00:48:21;;;;;;;6.72;3.05;;;;;;;;;;5049267;28;20043;-83
2023/06/25 00:50:48;;;;;;;6.57;3.10;;;;;;;;;;5054611;28;20064;-83
2023/06/25 00:53:13;;;;;;;4.68;3.28;;;;;;;;;;5055887;28;20044;-83
2023/06/25 00:55:39;;;;;;;6.40;3.00;;;;;;;;;;5052188;28;20042;-83
2023/06/25 00:58:06;;;;;;;4.45;3.10;;;;;;;;;;5039482;28;20087;-83
2023/06/25 01:00:33;;;;;;;4.57;3.20;;;;;;;;;;5045589;28;20065;-84
2023/06/25 01:03:26;;;;;;;5.50;3.25;;;;;;;;;;5046035;28;20107;-83
2023/06/25 01:06:12;;;;;;;4.10;3.13;;;;;;;;;;5030675;28;20040;-83
2023/06/25 01:08:49;;;;;;;3.83;2.83;;;;;;;;;;5030853;28;20041;-82
2023/06/25 01:11:15;;;;;;;4.47;3.13;;;;;;;;;;5056508;28;20041;-83
2023/06/25 01:13:40;;;;;;;4.00;2.90;;;;;;;;;;5039436;28;20042;-83
2023/06/25 01:16:06;;;;;;;3.95;3.10;;;;;;;;;;5023591;28;20033;-83
2023/06/25 01:18:32;;;;;;;4.05;3.10;;;;;;;;;;5048958;28;20091;-83
2023/06/25 01:20:58;;;;;;;4.57;3.22;;;;;;;;;;5049441;28;20040;-83
2023/06/25 01:23:24;;;;;;;6.53;2.97;;;;;;;;;;5052325;28;20033;-83
2023/06/25 01:25:50;;;;;;;5.88;3.05;;;;;;;;;;5050722;28;20017;-84
2023/06/25 01:28:20;;;;;;;3.92;2.83;;;;;;;;;;5054633;28;20025;-84
2023/06/25 01:30:51;;;;;;;4.15;2.90;;;;;;;;;;5043366;28;20037;-84
2023/06/25 01:33:19;;;;;;;5.22;3.10;;;;;;;;;;5024894;28;20030;-83
2023/06/25 01:35:44;;;;;;;4.53;3.20;;;;;;;;;;5046556;28;20049;-83
2023/06/25 01:38:10;;;;;;;4.13;3.10;;;;;;;;;;5050372;28;20037;-84
2023/06/25 01:40:36;;;;;;;3.78;2.90;;;;;;;;;;5036835;28;20029;-84
2023/06/25 01:43:02;;;;;;;4.43;3.00;;;;;;;;;;5056179;28;20041;-83
2023/06/25 01:45:27;;;;;;;3.55;2.78;;;;;;;;;;5050260;28;20542;-84
2023/06/25 01:47:53;;;;;;;6.75;3.00;;;;;;;;;;5043179;28;20034;-84
2023/06/25 01:50:19;;;;;;;5.60;3.10;;;;;;;;;;5044233;28;20029;-84
2023/06/25 01:52:44;;;;;;;5.28;3.13;;;;;;;;;;5046865;28;20037;-83
2023/06/25 01:55:10;;;;;;;6.20;3.10;;;;;;;;;;5050421;28;20155;-84
2023/06/25 01:57:35;;;;;;;4.07;3.00;;;;;;;;;;5052845;28;20529;-84
2023/06/25 02:00:01;;;;;;;4.60;2.90;;;;;;;;;;5056584;28;20025;-84
2023/06/25 02:02:26;;;;;;;4.43;3.25;;;;;;;;;;5026124;28;20030;-84
2023/06/25 02:04:52;;;;;;;5.13;3.38;;;;;;;;;;5041735;28;20036;-83
2023/06/25 02:07:17;;;;;;;4.50;3.10;;;;;;;;;;5045320;28;20696;-83
2023/06/25 02:09:43;;;;;;;4.82;3.22;;;;;;;;;;5048067;28;20075;-84
2023/06/25 02:12:08;;;;;;;4.40;3.00;;;;;;;;;;5049981;28;20114;-84
2023/06/25 02:14:36;;;;;;;5.22;3.28;;;;;;;;;;5055362;28;20049;-83
2023/06/25 02:17:01;;;;;;;4.72;3.22;;;;;;;;;;5053658;28;20079;-84
2023/06/25 02:19:27;;;;;;;4.32;3.00;;;;;;;;;;5038113;28;20406;-84
2023/06/25 02:21:53;;;;;;;4.78;3.20;;;;;;;;;;5043865;28;20498;-84
2023/06/25 02:24:18;;;;;;;6.93;3.10;;;;;;;;;;5045385;28;20406;-83
2023/06/25 02:26:44;;;;;;;4.18;3.13;;;;;;;;;;5046144;28;20090;-83
2023/06/25 02:29:09;;;;;;;4.60;2.95;;;;;;;;;;5049351;28;20025;-83
2023/06/25 02:31:34;;;;;;;5.40;3.25;;;;;;;;;;5055824;28;20035;-82
2023/06/25 02:34:00;;;;;;;4.25;3.20;;;;;;;;;;5039283;28;20125;-83
2023/06/25 02:36:25;;;;;;;3.97;2.97;;;;;;;;;;5041083;28;20036;-84
2023/06/25 02:38:51;;;;;;;4.80;3.35;;;;;;;;;;5046055;28;20034;-84
2023/06/25 02:41:17;;;;;;;4.57;2.90;;;;;;;;;;5049953;28;20031;-83
2023/06/25 02:43:42;;;;;;;4.50;3.20;;;;;;;;;;5054718;28;20024;-81
2023/06/25 02:46:08;;;;;;;4.18;3.17;;;;;;;;;;5023267;28;20068;-81
2023/06/25 02:48:36;;;;;;;4.13;3.17;;;;;;;;;;5036845;28;20090;-82
2023/06/25 02:51:01;;;;;;;4.15;3.10;;;;;;;;;;5042662;28;20072;-81
2023/06/25 02:53:27;;;;;;;4.63;2.97;;;;;;;;;;5046804;28;20062;-83
2023/06/25 02:55:52;;;;;;;4.88;2.92;;;;;;;;;;5047450;28;20026;-82
2023/06/25 02:58:18;;;;;;;4.00;3.15;;;;;;;;;;5031215;28;20041;-82
2023/06/25 03:00:43;;;;;;;5.18;3.05;;;;;;;;;;5037549;28;20037;-82
2023/06/25 03:03:09;;;;;;;4.28;2.90;;;;;;;;;;5041319;28;20029;-82
2023/06/25 03:05:35;;;;;;;4.85;3.03;;;;;;;;;;5045015;28;20025;-82
2023/06/25 03:08:00;;;;;;;5.18;3.33;;;;;;;;;;5049231;28;20104;-82
2023/06/25 03:10:29;;;;;;;4.28;3.20;;;;;;;;;;5045491;28;20483;-82
2023/06/25 03:12:56;;;;;;;5.35;3.20;;;;;;;;;;5036669;28;20033;-83
2023/06/25 03:15:22;;;;;;;4.15;3.08;;;;;;;;;;5042715;28;20116;-83
2023/06/25 03:17:47;;;;;;;4.72;3.20;;;;;;;;;;5044862;28;20201;-83
2023/06/25 03:20:13;;;;;;;4.40;3.13;;;;;;;;;;5047548;28;20082;-82
2023/06/25 03:22:40;;;;;;;4.97;3.13;;;;;;;;;;5047892;28;20116;-82
2023/06/25 03:25:06;;;;;;;4.30;3.13;;;;;;;;;;5019047;28;20119;-82
2023/06/25 03:27:33;;;;;;;4.20;3.20;;;;;;;;;;5039284;28;20091;-81
2023/06/25 03:30:00;;;;;;;3.70;2.92;;;;;;;;;;5042565;28;20037;-82
2023/06/25 03:32:26;;;;;;;4.40;3.17;;;;;;;;;;5044488;28;20064;-83
2023/06/25 03:34:52;;;;;;;6.00;3.45;;;;;;;;;;5048512;28;20051;-83
2023/06/25 03:37:17;;;;;;;5.03;3.25;;;;;;;;;;5016153;28;20040;-82
2023/06/25 03:39:44;;;;;;;6.50;3.42;;;;;;;;;;5036977;28;20478;-82
2023/06/25 03:42:10;;;;;;;4.38;3.17;;;;;;;;;;5042276;28;20041;-82
2023/06/25 03:44:36;;;;;;;5.07;3.30;;;;;;;;;;5045584;28;20040;-82
2023/06/25 03:47:03;;;;;;;5.97;3.17;;;;;;;;;;5048562;28;20549;-83
2023/06/25 03:49:28;;;;;;;5.55;3.40;;;;;;;;;;5036197;28;20033;-83
2023/06/25 03:51:54;;;;;;;5.70;3.30;;;;;;;;;;5036561;28;20127;-83
2023/06/25 03:54:20;;;;;;;4.93;3.20;;;;;;;;;;5040343;28;20035;-83
2023/06/25 03:56:45;;;;;;;4.68;3.35;;;;;;;;;;5044195;28;20024;-83
2023/06/25 03:59:11;;;;;;;4.70;3.30;;;;;;;;;;5031717;28;20049;-82
2023/06/25 04:01:37;;;;;;;5.38;3.55;;;;;;;;;;5040400;28;20021;-82
2023/06/25 04:04:02;;;;;;;4.60;3.33;;;;;;;;;;5036898;28;20063;-83
2023/06/25 04:06:29;;;;;;;6.18;3.53;;;;;;;;;;5036999;28;20126;-83
2023/06/25 04:08:56;;;;;;;6.40;3.30;;;;;;;;;;5043056;28;20049;-83
2023/06/25 04:11:21;;;;;;;4.60;3.28;;;;;;;;;;5042515;28;20525;-84
2023/06/25 04:13:47;;;;;;;5.70;3.60;;;;;;;;;;5039878;28;20399;-82
2023/06/25 04:16:13;;;;;;;5.50;3.58;;;;;;;;;;5014040;28;20049;-82
2023/06/25 04:18:41;;;;;;;5.53;3.50;;;;;;;;;;5019340;28;20372;-82
2023/06/25 04:21:07;;;;;;;5.47;3.60;;;;;;;;;;5042292;28;20064;-82
2023/06/25 04:23:33;;;;;;;5.35;3.20;;;;;;;;;;5045805;28;20037;-82
2023/06/25 04:25:59;;;;;;;5.72;3.15;;;;;;;;;;5047135;28;20041;-83
2023/06/25 04:28:25;;;;;;;7.15;3.70;;;;;;;;;;5017120;28;20041;-83
2023/06/25 04:30:51;;;;;;;7.15;3.53;;;;;;;;;;5037105;28;20030;-82
2023/06/25 04:33:18;;;;;;;5.70;3.53;;;;;;;;;;5040420;28;20045;-82
2023/06/25 04:35:44;;;;;;;5.35;3.60;;;;;;;;;;5043121;28;20040;-82
2023/06/25 04:38:10;;;;;;;5.72;3.40;;;;;;;;;;5045653;28;20419;-83
2023/06/25 04:40:35;;;;;;;5.90;3.35;;;;;;;;;;5049218;28;20032;-82
2023/06/25 04:43:01;;;;;;;4.72;3.53;;;;;;;;;;5044716;28;20056;-83
2023/06/25 04:45:26;;;;;;;5.78;3.40;;;;;;;;;;5035233;28;20060;-83
2023/06/25 04:47:52;;;;;;;4.47;3.25;;;;;;;;;;5039865;28;20621;-83
2023/06/25 04:50:17;;;;;;;7.65;3.30;;;;;;;;;;5022654;28;20037;-82
2023/06/25 04:52:43;;;;;;;5.88;3.38;;;;;;;;;;5043932;28;20037;-83
2023/06/25 04:55:08;;;;;;;4.53;3.20;;;;;;;;;;5048894;28;20041;-82
2023/06/25 04:57:34;;;;;;;5.35;3.40;;;;;;;;;;5051713;28;20067;-83
2023/06/25 04:59:59;;;;;;;5.38;3.55;;;;;;;;;;5031809;28;20526;-83
2023/06/25 05:02:25;;;;;;;5.85;3.30;;;;;;;;;;5037919;28;20507;-83
2023/06/25 05:04:50;;;;;;;4.55;3.40;;;;;;;;;;5040143;28;20120;-84
2023/06/25 05:07:16;;;;;;;5.40;3.33;;;;;;;;;;5041687;28;20025;-82
2023/06/25 05:09:42;;;;;;;6.22;3.50;;;;;;;;;;5045578;28;20040;-82
2023/06/25 05:12:08;;;;;;;4.22;2.90;;;;;;;;;;5050109;28;20047;-82
2023/06/25 05:14:34;;;;;;;5.28;3.28;;;;;;;;;;5023864;28;20479;-82
2023/06/25 05:16:59;;;;;;;4.22;3.30;;;;;;;;;;5037475;28;20029;-82
2023/06/25 05:19:25;;;;;;;5.55;3.30;;;;;;;;;;5040524;28;20033;-83
2023/06/25 05:21:50;;;;;;;4.55;3.20;;;;;;;;;;5044798;28;20037;-83
2023/06/25 05:24:16;;;;;;;4.78;3.22;;;;;;;;;;5048799;28;20497;-83
2023/06/25 05:26:41;;;;;;;5.75;3.60;;;;;;;;;;5033259;28;20179;-83
2023/06/25 05:29:07;;;;;;;5.93;3.47;;;;;;;;;;5021430;28;20411;-82
2023/06/25 05:31:32;;;;;;;8.95;3.35;;;;;;;;;;5043835;28;20029;-82
2023/06/25 05:33:58;;;;;;;4.10;3.25;;;;;;;;;;5047991;28;20033;-82
2023/06/25 05:36:24;;;;;;;4.20;3.10;;;;;;;;;;5051278;28;20047;-83
2023/06/25 05:38:49;;;;;;;5.82;3.20;;;;;;;;;;5046311;28;20080;-83
2023/06/25 05:41:15;;;;;;;5.53;3.53;;;;;;;;;;5035801;28;20087;-83
2023/06/25 05:43:40;;;;;;;4.32;3.38;;;;;;;;;;5039334;28;20060;-82
2023/06/25 05:46:11;;;;;;;4.43;3.30;;;;;;;;;;5046422;28;20036;-82
2023/06/25 05:48:38;;;;;;;4.88;3.10;;;;;;;;;;5050224;28;20083;-82
2023/06/25 05:51:03;;;;;;;5.63;3.20;;;;;;;;;;5047802;28;20034;-82
2023/06/25 05:53:37;;;;;;;5.00;3.30;;;;;;;;;;5038101;28;20045;-83
2023/06/25 05:56:03;;;;;;;4.07;3.10;;;;;;;;;;5041824;28;20051;-83
2023/06/25 05:58:29;;;;;;;4.95;3.50;;;;;;;;;;5046756;28;20100;-83
2023/06/25 06:00:54;;;;;;;5.50;3.25;;;;;;;;;;5049120;28;20112;-82
2023/06/25 06:03:20;;;;;;;4.80;3.00;;;;;;;;;;5051243;28;20045;-82
2023/06/25 06:05:45;;;;;;;5.05;3.33;;;;;;;;;;5052784;28;20033;-82
2023/06/25 06:08:10;;;;;;;4.30;3.35;;;;;;;;;;5035163;28;20036;-83
2023/06/25 06:10:36;;;;;;;4.07;3.28;;;;;;;;;;5042389;28;20445;-83
2023/06/25 06:13:01;;;;;;;5.32;3.30;;;;;;;;;;5044708;28;20037;-84
2023/06/25 06:15:27;;;;;;;5.95;3.30;;;;;;;;;;5047223;28;20013;-84
2023/06/25 06:17:52;;;;;;;5.07;3.15;;;;;;;;;;5050735;28;20564;-83
2023/06/25 06:20:18;;;;;;;4.30;3.13;;;;;;;;;;5053917;28;20514;-83
2023/06/25 06:22:43;;;;;;;4.93;3.40;;;;;;;;;;5050961;28;20080;-83
2023/06/25 06:25:09;;;;;;;6.05;3.30;;;;;;;;;;5039844;28;20041;-83
2023/06/25 06:27:34;;;;;;;4.60;3.40;;;;;;;;;;5041432;28;20048;-84
2023/06/25 06:30:00;;;;;;;3.60;3.13;;;;;;;;;;5046341;28;20044;-84
2023/06/25 06:32:25;;;;;;;4.95;3.42;;;;;;;;;;5049609;28;20056;-84
2023/06/25 06:34:51;;;;;;;4.80;3.58;;;;;;;;;;5047822;28;20474;-84
2023/06/25 06:37:16;;;;;;;5.47;3.20;;;;;;;;;;5053403;28;20082;-84
2023/06/25 06:39:41;;;;;;;5.00;3.30;;;;;;;;;;5038097;28;20037;-84
2023/06/25 06:42:07;;;;;;;5.78;3.40;;;;;;;;;;5037903;28;20033;-83
2023/06/25 06:44:32;;;;;;;4.30;3.42;;;;;;;;;;5041461;28;20476;-83
2023/06/25 06:46:58;;;;;;;6.38;3.45;;;;;;;;;;5042785;28;20036;-83
2023/06/25 06:49:23;;;;;;;5.40;3.20;;;;;;;;;;5046430;28;20044;-83
2023/06/25 06:51:49;;;;;;;4.43;3.20;;;;;;;;;;5050072;28;20037;-84
2023/06/25 06:54:14;;;;;;;4.55;3.30;;;;;;;;;;5054536;28;20082;-83
2023/06/25 06:56:40;;;;;;;4.00;3.08;;;;;;;;;;5027484;28;20045;-83
2023/06/25 06:59:05;;;;;;;4.43;3.40;;;;;;;;;;5039935;28;20116;-84
2023/06/25 07:01:32;;;;;;;4.55;3.10;;;;;;;;;;5044847;28;20033;-83
2023/06/25 07:03:58;;;;;;;5.45;3.33;;;;;;;;;;5045086;28;20067;-84
2023/06/25 07:06:23;;;;;;;5.30;3.30;;;;;;;;;;5047243;28;20514;-84
2023/06/25 07:08:49;;;;;;;6.75;3.58;;;;;;;;;;5051453;28;20069;-85
2023/06/25 07:11:16;;;;;;;4.35;3.28;;;;;;;;;;5054106;28;20047;-83
2023/06/25 07:13:43;;;;;;;4.32;3.50;;;;;;;;;;5018748;28;20045;-83
2023/06/25 07:16:09;;;;;;;4.70;3.30;;;;;;;;;;5035895;28;20585;-81
2023/06/25 07:18:35;;;;;;;5.20;3.17;;;;;;;;;;5039563;28;20105;-82
2023/06/25 07:21:00;;;;;;;4.82;3.40;;;;;;;;;;5042407;28;20487;-82
2023/06/25 07:23:25;;;;;;;6.25;3.50;;;;;;;;;;5047161;28;20040;-82
2023/06/25 07:25:51;;;;;;;4.35;3.28;;;;;;;;;;5048601;28;20044;-82
2023/06/25 07:28:16;;;;;;;4.43;3.55;;;;;;;;;;5044554;28;20125;-81
2023/06/25 07:30:42;;;;;;;5.20;3.20;;;;;;;;;;5032554;28;20041;-83
2023/06/25 07:33:07;;;;;;;4.82;3.30;;;;;;;;;;5033418;28;20033;-85
2023/06/25 07:35:33;;;;;;;3.85;3.17;;;;;;;;;;5034448;28;20032;-82
2023/06/25 07:37:58;;;;;;;3.78;3.20;;;;;;;;;;5045674;28;20045;-84
2023/06/25 07:40:24;;;;;;;5.80;3.40;;;;;;;;;;5048685;28;20043;-84
2023/06/25 07:42:49;;;;;;;4.20;3.33;;;;;;;;;;5050197;28;20053;-85
2023/06/25 07:45:15;;;;;;;4.28;3.20;;;;;;;;;;5046124;28;20522;-85
2023/06/25 07:47:40;;;;;;;3.90;3.08;;;;;;;;;;5040023;28;20040;-86
2023/06/25 07:50:07;;;;;;;6.07;3.30;;;;;;;;;;5040662;28;20093;-85
2023/06/25 07:52:32;;;;;;;3.80;3.30;;;;;;;;;;5046875;28;20029;-86
2023/06/25 07:54:58;;;;;;;5.55;3.50;;;;;;;;;;5049265;28;20041;-87
2023/06/25 07:57:23;;;;;;;4.95;3.45;;;;;;;;;;5048123;28;20030;-88
2023/06/25 07:59:49;;;;;;;4.68;3.55;;;;;;;;;;5055928;28;20267;-87
2023/06/25 08:02:14;;;;;;;4.05;3.30;;;;;;;;;;5031836;28;20038;-86
2023/06/25 08:04:40;;;;;;;6.10;3.80;;;;;;;;;;5040120;28;20056;-84
2023/06/25 08:07:05;;;;;;;5.28;3.90;;;;;;;;;;5040627;28;20152;-82
2023/06/25 08:09:31;;;;;;;5.50;3.58;;;;;;;;;;5042691;28;20589;-84
2023/06/25 08:11:58;;;;;;;5.60;3.53;;;;;;;;;;5047137;28;20079;-89
2023/06/25 08:14:23;;;;;;;5.53;3.78;;;;;;;;;;5049471;28;20041;-83
2023/06/25 08:16:49;;;;;;;4.70;3.58;;;;;;;;;;5051751;28;20051;-85
2023/06/25 08:19:14;;;;;;;5.03;4.07;;;;;;;;;;5017776;28;20040;-86
2023/06/25 08:21:40;;;;;;;5.65;3.50;;;;;;;;;;5038558;28;20030;-83
2023/06/25 08:24:05;;;;;;;5.13;3.63;;;;;;;;;;5040801;28;20041;-82
2023/06/25 08:26:31;;;;;;;4.38;3.60;;;;;;;;;;5044336;28;20040;-82
2023/06/25 08:28:56;;;;;;;4.90;3.65;;;;;;;;;;5044431;28;20056;-83
2023/06/25 08:31:22;;;;;;;6.05;3.47;;;;;;;;;;5049909;28;20039;-82
2023/06/25 08:33:47;;;;;;;4.85;3.72;;;;;;;;;;5046022;28;20038;-82
2023/06/25 08:36:13;;;;;;;4.25;3.47;;;;;;;;;;5039709;28;20044;-82
2023/06/25 08:38:38;;;;;;;4.55;3.75;;;;;;;;;;5043467;28;20053;-83
2023/06/25 08:41:04;;;;;;;4.65;3.58;;;;;;;;;;5049538;28;20035;-81
2023/06/25 08:43:30;;;;;;;4.72;3.40;;;;;;;;;;5047042;28;20044;-82
2023/06/25 08:45:55;;;;;;;5.40;3.60;;;;;;;;;;5049583;28;20036;-82
2023/06/25 08:48:25;;;;;;;4.50;3.47;;;;;;;;;;5050637;28;20044;-82
2023/06/25 08:50:58;;;;;;;4.35;3.40;;;;;;;;;;5036414;28;20041;-82
2023/06/25 08:53:25;;;;;;;4.67;3.50;;;;;;;;;;5016295;28;20041;-83
2023/06/25 08:55:53;;;;;;;5.05;3.38;;;;;;;;;;5039990;28;20338;-83
2023/06/25 08:58:21;;;;;;;4.40;3.70;;;;;;;;;;5041881;28;20081;-82
2023/06/25 09:00:46;;;;;;;4.47;3.72;;;;;;;;;;5044392;28;20044;-82
2023/06/25 09:03:12;;;;;;;5.35;4.10;;;;;;;;;;5047724;28;20032;-82
2023/06/25 09:05:57;;;;;;;5.90;3.72;;;;;;;;;;5055808;28;20033;-84
2023/06/25 09:08:25;;;;;;;5.35;3.72;;;;;;;;;;5023240;28;20037;-82
2023/06/25 09:10:56;;;;;;;4.82;3.58;;;;;;;;;;5039679;28;20041;-81
2023/06/25 09:13:22;;;;;;;5.32;3.47;;;;;;;;;;5041810;28;20037;-82
2023/06/25 09:15:48;;;;;;;4.68;3.72;;;;;;;;;;5045984;28;20029;-83
2023/06/25 09:18:13;;;;;;;4.93;3.33;;;;;;;;;;5049329;28;20033;-83
2023/06/25 09:20:47;;;;;;;5.28;3.92;;;;;;;;;;5053535;28;20072;-82
2023/06/25 09:23:17;;;;;;;;;;;;;;;;;;5046843;28;20053;-82
2023/06/25 09:25:44;;;;;;;5.32;4.10;;;;;;;;;;5036553;28;19916;-82
2023/06/25 09:28:09;;;;;;;5.75;3.92;;;;;;;;;;5041962;28;20077;-82
2023/06/25 09:30:35;;;;;;;6.10;4.10;;;;;;;;;;5045366;28;20033;-82
2023/06/25 09:33:02;;;;;;;4.88;4.10;;;;;;;;;;5047715;28;20486;-82
2023/06/25 09:35:29;;;;;;;6.55;3.70;;;;;;;;;;5050888;28;20143;-82
2023/06/25 09:37:55;;;;;;;6.05;3.80;;;;;;;;;;5054297;28;20491;-82
2023/06/25 09:40:21;;;;;;;5.72;4.15;;;;;;;;;;5045049;28;20044;-83
2023/06/25 09:42:55;;;;;;;5.22;4.13;;;;;;;;;;5039984;28;20037;-82
2023/06/25 09:45:22;;;;;;;5.82;4.13;;;;;;;;;;5024195;28;20478;-82
2023/06/25 09:47:49;;;;;;;7.15;4.60;;;;;;;;;;5045315;28;20037;-82
2023/06/25 09:50:19;;;;;;;6.53;4.20;;;;;;;;;;5048730;28;20072;-82
2023/06/25 09:52:58;;;;;;;5.55;4.40;;;;;;;;;;5051580;28;20123;-82
2023/06/25 09:55:26;;;;;;;6.95;4.53;;;;;;;;;;5053131;28;20073;-82
2023/06/25 09:57:57;;;;;;;6.25;4.63;;;;;;;;;;5019333;28;20038;-82
2023/06/25 10:00:24;;;;;;;5.25;4.22;;;;;;;;;;5038603;28;20108;-85
2023/06/25 10:02:50;;;;;;;6.80;4.28;;;;;;;;;;5031900;28;20067;-84
2023/06/25 10:05:16;;;;;;;6.38;4.47;;;;;;;;;;5050164;28;20041;-83
2023/06/25 10:07:43;;;;;;;6.57;4.20;;;;;;;;;;5050534;28;20491;-84
2023/06/25 10:10:23;;;;;;;7.05;4.60;;;;;;;;;;5048259;28;20068;-84
2023/06/25 10:12:49;;;;;;;5.35;4.40;;;;;;;;;;5047044;28;20041;-84
2023/06/25 10:15:27;;;;;;;8.00;4.75;;;;;;;;;;5039015;28;20499;-84
2023/06/25 10:17:52;;;;;;;7.75;4.55;;;;;;;;;;5040397;28;20041;-84
2023/06/25 10:20:44;;;;;;;7.75;4.60;;;;;;;;;;5045732;28;20041;-85
2023/06/25 10:23:11;;;;;;;7.00;4.93;;;;;;;;;;5042606;28;20052;-85
2023/06/25 10:25:39;;;;;;;6.82;4.75;;;;;;;;;;5050760;28;20163;-83
2023/06/25 10:28:14;;;;;;;5.90;4.57;;;;;;;;;;5054658;28;20037;-83
2023/06/25 10:30:45;;;;;;;7.97;4.65;;;;;;;;;;5018990;28;20720;-84
2023/06/25 10:33:14;;;;;;;8.35;4.72;;;;;;;;;;5038220;28;20041;-84
2023/06/25 10:35:43;;;;;;;6.13;4.80;;;;;;;;;;5043866;28;20275;-84
2023/06/25 10:38:09;;;;;;;7.95;4.97;;;;;;;;;;5046002;28;20042;-82
2023/06/25 10:40:36;;;;;;;5.78;4.85;;;;;;;;;;5049764;28;20037;-84
2023/06/25 10:43:02;;;;;;;6.85;5.00;;;;;;;;;;5053616;28;20020;-84
2023/06/25 10:45:28;;;;;;;7.25;5.00;;;;;;;;;;5045194;28;20034;-84
2023/06/25 10:48:01;;;;;;;5.90;4.50;;;;;;;;;;5038573;28;20588;-84
2023/06/25 10:50:30;;;;;;;7.18;4.38;;;;;;;;;;5042365;28;20414;-84
2023/06/25 10:52:55;;;;;;;6.80;5.30;;;;;;;;;;5046559;28;20044;-83
2023/06/25 10:55:21;;;;;;;6.60;4.75;;;;;;;;;;5049384;28;20035;-83
2023/06/25 10:57:48;;;;;;;6.13;4.93;;;;;;;;;;5051389;28;20415;-84
2023/06/25 11:00:19;;;;;;;8.30;5.10;;;;;;;;;;5054508;28;20033;-84
2023/06/25 11:02:50;;;;;;;6.30;4.95;;;;;;;;;;5026331;28;20041;-83
2023/06/25 11:05:15;;;;;;;6.20;4.95;;;;;;;;;;5040021;28;20037;-83
2023/06/25 11:07:41;;;;;;;8.20;4.85;;;;;;;;;;5036559;28;20037;-84
2023/06/25 11:10:07;;;;;;;5.78;4.82;;;;;;;;;;5045369;28;20538;-84
2023/06/25 11:12:32;;;;;;;6.25;4.75;;;;;;;;;;5048822;28;20040;-83
2023/06/25 11:14:58;;;;;;;5.97;4.53;;;;;;;;;;5052427;28;20406;-84
2023/06/25 11:17:23;;;;;;;7.05;4.80;;;;;;;;;;5055075;28;20033;-83
2023/06/25 11:19:53;;;;;;;7.15;5.00;;;;;;;;;;5021429;28;20037;-84
2023/06/25 11:22:20;;;;;;;7.38;4.80;;;;;;;;;;5037739;28;20038;-84
2023/06/25 11:24:46;;;;;;;5.78;5.18;;;;;;;;;;5043242;28;20108;-84
2023/06/25 11:27:11;;;;;;;5.78;4.70;;;;;;;;;;5045261;28;20126;-84
2023/06/25 11:29:39;;;;;;;7.85;4.85;;;;;;;;;;5049943;28;20053;-83
2023/06/25 11:32:07;;;;;;;5.93;4.90;;;;;;;;;;5052675;28;20032;-84
2023/06/25 11:34:34;;;;;;;6.47;4.88;;;;;;;;;;5047381;28;20738;-84
2023/06/25 11:37:10;;;;;;;6.20;5.07;;;;;;;;;;5037085;28;20522;-84
2023/06/25 11:39:46;;;;;;;6.50;4.45;;;;;;;;;;5042623;28;20045;-83
2023/06/25 11:42:20;;;;;;;7.43;4.55;;;;;;;;;;5023640;28;20410;-83
2023/06/25 11:45:02;;;;;;;6.13;4.88;;;;;;;;;;5028246;28;20089;-84
2023/06/25 11:47:28;;;;;;;6.45;5.18;;;;;;;;;;5031804;28;20057;-83
2023/06/25 11:49:54;;;;;;;7.05;4.68;;;;;;;;;;5032917;28;20073;-84
2023/06/25 11:52:20;;;;;;;5.90;4.60;;;;;;;;;;5036126;28;20041;-83
2023/06/25 11:54:46;;;;;;;6.30;5.10;;;;;;;;;;5039224;28;20041;-83
2023/06/25 11:57:11;;;;;;;5.63;4.78;;;;;;;;;;5042080;28;20066;-84
2023/06/25 11:59:37;;;;;;;7.72;4.55;;;;;;;;;;5045408;28;20033;-84
2023/06/25 12:02:02;;;;;;;6.38;4.80;;;;;;;;;;5047169;28;20029;-83
2023/06/25 12:04:28;;;;;;;6.18;4.68;;;;;;;;;;5047370;28;20044;-88
2023/06/25 12:06:53;;;;;;;7.40;4.90;;;;;;;;;;5059265;28;20101;-84
2023/06/25 12:09:19;;;;;;;6.80;4.90;;;;;;;;;;5034282;28;20450;-83
2023/06/25 12:11:47;;;;;;;6.43;4.38;;;;;;;;;;5039752;28;20057;-83
2023/06/25 12:14:13;;;;;;;5.97;4.80;;;;;;;;;;5042201;28;20041;-84
2023/06/25 12:16:38;;;;;;;6.20;4.68;;;;;;;;;;5046689;28;20150;-83
2023/06/25 12:19:05;;;;;;;5.65;4.57;;;;;;;;;;5049491;28;20033;-83
2023/06/25 12:21:31;;;;;;;5.40;4.50;;;;;;;;;;5053672;28;20041;-82
2023/06/25 12:23:57;;;;;;;6.60;4.88;;;;;;;;;;5044749;28;20044;-84
2023/06/25 12:26:22;;;;;;;7.32;4.90;;;;;;;;;;5034778;28;20037;-84
2023/06/25 12:28:48;;;;;;;6.40;4.55;;;;;;;;;;5042830;28;20096;-85
2023/06/25 12:31:15;;;;;;;7.28;5.00;;;;;;;;;;5042723;28;20079;-85
2023/06/25 12:33:40;;;;;;;6.30;4.63;;;;;;;;;;5049079;28;20053;-84
2023/06/25 12:36:06;;;;;;;8.00;4.82;;;;;;;;;;5041837;28;20037;-84
2023/06/25 12:38:31;;;;;;;6.18;4.80;;;;;;;;;;5050098;28;20033;-83
2023/06/25 12:40:57;;;;;;;7.70;4.75;;;;;;;;;;5037306;28;20095;-83
2023/06/25 12:43:23;;;;;;;5.10;4.50;;;;;;;;;;5045840;28;20057;-84
2023/06/25 12:45:48;;;;;;;5.75;4.30;;;;;;;;;;5047901;28;20418;-81
2023/06/25 12:48:14;;;;;;;8.60;4.63;;;;;;;;;;5051289;28;20036;-84
2023/06/25 12:50:39;;;;;;;6.07;4.47;;;;;;;;;;5054048;28;20044;-85
2023/06/25 12:53:05;;;;;;;5.50;4.53;;;;;;;;;;5056695;28;20037;-85
2023/06/25 12:55:31;;;;;;;8.07;4.78;;;;;;;;;;5043125;28;20041;-84
2023/06/25 12:57:57;;;;;;;5.30;4.40;;;;;;;;;;5042812;28;20125;-85
2023/06/25 13:00:22;;;;;;;7.30;4.97;;;;;;;;;;5042576;28;20506;-84
2023/06/25 13:02:48;;;;;;;7.80;5.10;;;;;;;;;;5044840;28;20118;-85
2023/06/25 13:05:14;;;;;;;5.93;4.60;;;;;;;;;;5050569;28;20541;-85
2023/06/25 13:07:40;;;;;;;6.53;4.88;;;;;;;;;;5046931;28;20038;-85
2023/06/25 13:10:06;;;;;;;6.88;4.68;;;;;;;;;;5050949;28;20041;-85
2023/06/25 13:12:32;;;;;;;6.68;4.93;;;;;;;;;;5059508;28;20036;-86
2023/06/25 13:14:57;;;;;;;6.60;4.65;;;;;;;;;;5043105;28;20074;-86
2023/06/25 13:17:23;;;;;;;5.60;4.40;;;;;;;;;;5047270;28;20379;-86
2023/06/25 13:19:48;;;;;;;6.15;4.88;;;;;;;;;;5046879;28;20040;-83
2023/06/25 13:22:14;;;;;;;5.18;4.40;;;;;;;;;;5052226;28;20048;-86
2023/06/25 13:24:41;;;;;;;6.75;5.03;;;;;;;;;;5055367;28;20037;-86
2023/06/25 13:27:07;;;;;;;5.90;4.97;;;;;;;;;;5056690;28;20490;-86
2023/06/25 13:29:33;;;;;;;5.93;4.47;;;;;;;;;;5052745;28;20066;-86
2023/06/25 13:31:59;;;;;;;7.00;4.57;;;;;;;;;;5044080;28;20486;-86
2023/06/25 13:34:24;;;;;;;5.40;4.43;;;;;;;;;;5045206;28;20029;-82
2023/06/25 13:36:50;;;;;;;6.22;4.68;;;;;;;;;;5045220;28;20548;-82
2023/06/25 13:39:15;;;;;;;6.45;4.72;;;;;;;;;;5046512;28;20032;-84
2023/06/25 13:41:41;;;;;;;6.05;4.60;;;;;;;;;;5049746;28;20044;-84
2023/06/25 13:44:07;;;;;;;5.82;4.50;;;;;;;;;;5050510;28;20039;-81
2023/06/25 13:46:32;;;;;;;5.45;4.45;;;;;;;;;;5035540;28;20037;-80
2023/06/25 13:48:57;;;;;;;6.63;4.72;;;;;;;;;;5036770;28;20103;-82
2023/06/25 13:51:23;;;;;;;9.30;4.57;;;;;;;;;;5041078;28;20037;-84
2023/06/25 13:53:48;;;;;;;6.00;4.32;;;;;;;;;;5045239;28;20111;-83
2023/06/25 13:56:14;;;;;;;6.55;4.68;;;;;;;;;;5047481;28;20041;-83
2023/06/25 13:58:40;;;;;;;6.93;4.25;;;;;;;;;;5048608;28;20115;-82
2023/06/25 14:01:05;;;;;;;6.65;4.60;;;;;;;;;;5053613;28;20040;-83
2023/06/25 14:03:31;;;;;;;6.35;4.30;;;;;;;;;;5039957;28;20577;-82
2023/06/25 14:05:57;;;;;;;5.43;4.60;;;;;;;;;;5040108;28;20450;-82
2023/06/25 14:08:23;;;;;;;6.07;4.57;;;;;;;;;;5037407;28;20033;-82
2023/06/25 14:10:48;;;;;;;6.00;4.47;;;;;;;;;;5044011;28;20520;-81
2023/06/25 14:13:14;;;;;;;6.70;4.68;;;;;;;;;;5049849;28;20044;-83
2023/06/25 14:15:41;;;;;;;7.88;4.70;;;;;;;;;;5051885;28;20100;-83
2023/06/25 14:18:07;;;;;;;5.20;4.38;;;;;;;;;;5056114;28;20044;-82
2023/06/25 14:20:33;;;;;;;5.50;4.28;;;;;;;;;;5037037;28;20041;-83
2023/06/25 14:22:59;;;;;;;5.50;4.45;;;;;;;;;;5040350;28;20121;-83
2023/06/25 14:25:24;;;;;;;9.15;4.30;;;;;;;;;;5042389;28;20041;-83
2023/06/25 14:27:50;;;;;;;7.47;4.50;;;;;;;;;;5046310;28;20037;-81
2023/06/25 14:30:16;;;;;;;9.57;4.63;;;;;;;;;;5047111;28;20034;-83
2023/06/25 14:32:42;;;;;;;6.55;4.45;;;;;;;;;;5051492;28;20037;-83
2023/06/25 14:35:07;;;;;;;6.55;4.40;;;;;;;;;;5045035;28;20511;-83
2023/06/25 14:37:33;;;;;;;7.35;4.55;;;;;;;;;;5034602;28;20037;-82
2023/06/25 14:39:58;;;;;;;6.20;4.60;;;;;;;;;;5039986;28;20028;-83